Time;durP1;ratioP1;P1;durP2;ratioP2;P2;SDS_P1;SDS_P2;PMS_P1;PMS_P2;Temp;Humidity;BMP_temperature;BMP_pressure;BME280_temperature;BME280_humidity;BME280_pressure;Samples;Min_cycle;Max_cycle;Signal;HPM_P1;HPM_P2
2022/04/19 00:01:22;;;;;;;25.63;13.07;;;;;;;10.91;59.37;99870.00;5099258;27;20061;-82
2022/04/19 00:03:48;;;;;;;21.40;13.45;;;;;;;10.88;60.07;99875.56;5099351;27;20080;-82
2022/04/19 00:06:14;;;;;;;20.20;12.82;;;;;;;10.88;59.46;99875.56;5098772;27;20066;-81
2022/04/19 00:08:40;;;;;;;17.92;13.48;;;;;;;10.73;60.03;99857.09;5116197;27;20039;-82
2022/04/19 00:11:06;;;;;;;21.95;13.48;;;;;;;10.75;60.27;99872.06;5134600;27;20054;-81
2022/04/19 00:13:32;;;;;;;18.60;13.40;;;;;;;10.63;60.22;99863.09;5099968;27;20050;-82
2022/04/19 00:15:58;;;;;;;20.13;12.23;;;;;;;10.57;60.19;99866.22;5116045;27;20050;-81
2022/04/19 00:18:26;;;;;;;15.43;11.82;;;;;;;10.61;60.43;99878.41;5099135;27;20115;-83
2022/04/19 00:20:54;;;;;;;16.60;11.30;;;;;;;10.55;60.46;99872.63;5116137;27;20127;-82
2022/04/19 00:23:21;;;;;;;15.02;11.63;;;;;;;10.60;60.29;99873.16;5081949;27;20041;-81
2022/04/19 00:25:48;;;;;;;13.68;10.30;;;;;;;10.58;60.16;99877.78;5134624;27;20047;-83
2022/04/19 00:28:14;;;;;;;20.35;10.18;;;;;;;10.57;60.11;99876.03;5099002;27;20045;-82
2022/04/19 00:30:42;;;;;;;13.23;10.10;;;;;;;10.58;59.98;99875.09;5116152;27;20130;-82
2022/04/19 00:33:08;;;;;;;23.52;10.50;;;;;;;10.55;60.26;99878.00;5099509;27;20450;-83
2022/04/19 00:35:36;;;;;;;12.93;8.75;;;;;;;10.48;60.21;99876.72;5100292;27;20103;-81
2022/04/19 00:38:03;;;;;;;12.95;8.32;;;;;;;10.46;60.65;99884.84;5116819;27;20043;-80
2022/04/19 00:40:30;;;;;;;11.98;8.98;;;;;;;10.48;60.12;99876.72;5134203;27;20107;-79
2022/04/19 00:42:57;;;;;;;9.90;7.85;;;;;;;10.47;60.54;99877.69;5081767;27;20111;-83
2022/04/19 00:45:25;;;;;;;14.60;8.35;;;;;;;10.48;60.39;99876.72;5082156;27;20515;-83
2022/04/19 00:47:53;;;;;;;11.95;8.05;;;;;;;10.52;60.58;99879.06;5115967;28;20035;-85
2022/04/19 00:50:22;;;;;;;15.90;8.88;;;;;;;10.53;60.43;99878.09;5115352;28;20092;-80
2022/04/19 00:52:48;;;;;;;12.18;8.73;;;;;;;10.55;60.44;99883.34;5098633;27;20050;-82
2022/04/19 00:55:15;;;;;;;15.07;9.10;;;;;;;10.54;60.38;99877.13;5081894;28;20130;-83
2022/04/19 00:57:43;;;;;;;11.77;8.77;;;;;;;10.34;60.68;99862.53;5081729;28;20092;-81
2022/04/19 01:00:12;;;;;;;14.25;8.30;;;;;;;10.50;60.74;99888.16;5095103;28;20151;-82
2022/04/19 01:02:45;;;;;;;13.80;8.77;;;;;;;10.50;60.46;99877.47;5112564;28;20047;-83
2022/04/19 01:05:13;;;;;;;11.00;8.35;;;;;;;10.51;60.78;99888.03;5112050;28;20043;-82
2022/04/19 01:07:40;;;;;;;11.48;9.07;;;;;;;10.53;61.04;99886.13;5113198;28;20040;-81
2022/04/19 01:10:10;;;;;;;11.80;8.65;;;;;;;10.51;60.66;99876.50;5078607;28;20105;-80
2022/04/19 01:15:20;;;;;;;12.60;8.85;;;;;;;10.56;60.39;99893.91;5095020;28;20482;-81
2022/04/19 01:18:02;;;;;;;19.15;10.20;;;;;;;10.58;60.50;99891.13;5112280;28;20040;-81
2022/04/19 01:20:29;;;;;;;17.52;8.60;;;;;;;10.55;60.63;99894.03;5099138;28;20040;-82
2022/04/19 01:22:58;;;;;;;17.40;8.75;;;;;;;10.50;60.48;99888.16;5116374;28;20044;-81
2022/04/19 01:25:27;;;;;;;15.93;9.30;;;;;;;10.50;60.69;99893.50;5098945;28;20039;-81
2022/04/19 01:27:54;;;;;;;13.43;9.10;;;;;;;10.42;61.08;99899.41;5098891;28;20039;-81
2022/04/19 01:30:20;;;;;;;13.05;8.85;;;;;;;10.44;60.76;99892.97;5098900;28;20036;-81
2022/04/19 01:32:49;;;;;;;;;;;;;;;10.51;60.99;99892.53;5099477;28;20100;-81
2022/04/19 01:35:17;;;;;;;16.88;8.38;;;;;;;10.48;61.00;99887.41;5098633;28;19919;-82
2022/04/19 01:37:50;;;;;;;14.88;9.48;;;;;;;10.57;61.20;99902.78;5099725;28;20048;-82
2022/04/19 01:40:23;;;;;;;16.98;9.00;;;;;;;10.56;60.93;99895.72;5082684;28;20138;-82
2022/04/19 01:42:58;;;;;;;15.18;8.85;;;;;;;10.65;60.76;99893.25;5098767;28;20039;-81
2022/04/19 01:45:30;;;;;;;14.77;8.48;;;;;;;10.75;60.50;99906.81;5082241;28;20040;-82
2022/04/19 01:48:00;;;;;;;13.80;10.48;;;;;;;10.79;60.43;99908.28;5099456;28;20047;-81
2022/04/19 01:50:28;;;;;;;23.40;9.05;;;;;;;10.75;60.45;99917.50;5082417;28;20053;-82
2022/04/19 01:52:57;;;;;;;14.63;9.25;;;;;;;10.71;60.49;99899.97;5081863;28;20038;-83
2022/04/19 01:55:26;;;;;;;13.02;8.50;;;;;;;10.83;60.29;99912.50;5099105;28;20055;-82
2022/04/19 01:57:57;;;;;;;18.02;9.95;;;;;;;10.93;60.21;99913.50;5098750;28;20051;-82
2022/04/19 02:00:29;;;;;;;15.70;8.88;;;;;;;10.97;60.19;99905.28;5098444;28;20048;-83
2022/04/19 02:02:57;;;;;;;19.42;8.43;;;;;;;11.01;59.72;99912.09;5098121;28;20043;-83
2022/04/19 02:05:24;;;;;;;13.13;9.05;;;;;;;11.08;59.95;99916.03;5097808;28;20383;-82
2022/04/19 02:07:51;;;;;;;17.65;8.50;;;;;;;11.10;60.00;99917.66;5098624;28;20043;-80
2022/04/19 02:10:19;;;;;;;37.15;8.95;;;;;;;10.97;60.12;99899.91;5098265;28;20035;-82
2022/04/19 02:12:50;;;;;;;20.13;9.80;;;;;;;11.09;59.87;99909.72;5098982;28;20043;-81
2022/04/19 02:15:32;;;;;;;18.25;9.88;;;;;;;11.15;59.38;99915.47;5115949;28;20040;-85
2022/04/19 02:18:06;;;;;;;14.48;9.02;;;;;;;11.25;59.73;99906.78;5098397;28;20184;-82
2022/04/19 02:20:34;;;;;;;19.52;8.85;;;;;;;11.44;59.05;99912.50;5081776;28;20092;-83
2022/04/19 02:23:01;;;;;;;22.55;10.23;;;;;;;11.48;59.02;99915.78;5098793;28;20075;-83
2022/04/19 02:25:28;;;;;;;15.98;9.07;;;;;;;11.59;58.66;99916.69;5098003;28;20043;-81
2022/04/19 02:27:55;;;;;;;21.65;9.30;;;;;;;11.76;59.19;99915.41;5080576;28;20035;-82
2022/04/19 02:30:26;;;;;;;18.40;9.20;;;;;;;11.96;58.47;99919.31;5113711;28;20051;-82
2022/04/19 02:33:02;;;;;;;16.60;9.15;;;;;;;12.11;57.79;99915.44;5099148;28;20039;-83
2022/04/19 02:35:31;;;;;;;20.88;9.82;;;;;;;12.25;57.46;99921.53;5081268;28;20126;-83
2022/04/19 02:37:59;;;;;;;19.20;8.70;;;;;;;12.27;57.20;99920.47;5097216;28;20051;-83
2022/04/19 02:40:30;;;;;;;25.40;9.45;;;;;;;12.34;57.33;99927.03;5113718;28;20512;-83
2022/04/19 02:42:59;;;;;;;38.28;10.68;;;;;;;12.46;56.83;99924.38;5114171;28;20093;-82
2022/04/19 02:45:26;;;;;;;38.20;9.43;;;;;;;12.59;56.50;99933.16;5097496;28;20048;-82
2022/04/19 02:48:07;;;;;;;29.60;8.93;;;;;;;12.62;56.04;99925.72;5097253;28;20063;-83
2022/04/19 02:50:42;;;;;;;40.65;10.35;;;;;;;12.75;55.96;99928.28;5098022;28;20498;-81
2022/04/19 02:53:09;;;;;;;26.08;8.63;;;;;;;12.87;56.12;99940.72;5114726;28;20078;-82
2022/04/19 02:55:37;;;;;;;34.30;10.23;;;;;;;12.88;55.82;99934.38;5115239;28;20040;-81
2022/04/19 02:58:04;;;;;;;22.20;9.10;;;;;;;12.98;55.47;99955.13;5097992;28;20409;-82
2022/04/19 03:00:30;;;;;;;23.10;8.95;;;;;;;13.07;55.57;99949.00;5097653;28;20133;-83
2022/04/19 03:02:56;;;;;;;34.38;9.32;;;;;;;13.11;55.16;99958.50;5116107;28;20526;-83
2022/04/19 03:05:22;;;;;;;29.00;9.50;;;;;;;13.10;54.95;99946.91;5098177;28;20413;-82
2022/04/19 03:07:48;;;;;;;21.23;9.30;;;;;;;13.18;54.89;99953.50;5114083;28;20043;-81
2022/04/19 03:10:16;;;;;;;15.38;8.73;;;;;;;13.20;54.78;99941.66;5098058;28;20048;-82
2022/04/19 03:12:43;;;;;;;27.98;9.73;;;;;;;13.25;54.50;99949.38;5098453;28;20082;-82
2022/04/19 03:15:18;;;;;;;25.55;9.10;;;;;;;13.23;54.63;99957.53;5115698;28;20035;-80
2022/04/19 03:17:45;;;;;;;25.15;9.82;;;;;;;13.24;54.36;99948.53;5115216;28;20056;-81
2022/04/19 03:20:13;;;;;;;18.05;8.75;;;;;;;13.33;54.49;99950.44;5098182;28;20054;-81
2022/04/19 03:28:15;;;;;;;28.15;9.98;;;;;;;13.79;53.69;99952.00;5076964;28;20071;-80
2022/04/19 03:30:41;;;;;;;24.52;10.98;;;;;;;13.92;53.45;99953.69;5065495;28;20040;-82
2022/04/19 03:33:07;;;;;;;28.20;9.98;;;;;;;13.98;53.05;99947.78;5082736;28;20071;-81
2022/04/19 03:35:36;;;;;;;44.05;10.20;;;;;;;13.97;53.19;99954.13;5099378;28;20050;-78
2022/04/19 03:38:06;;;;;;;21.23;9.63;;;;;;;14.14;52.65;99956.25;5063147;28;20043;-83
2022/04/19 03:40:33;;;;;;;26.10;9.23;;;;;;;14.17;52.57;99950.59;5080024;28;20142;-81
2022/04/19 03:43:02;;;;;;;21.35;9.38;;;;;;;14.01;52.75;99959.13;5078600;28;20036;-83
2022/04/19 03:45:29;;;;;;;20.80;8.80;;;;;;;14.13;52.75;99957.22;5078962;28;20093;-81
2022/04/19 03:47:55;;;;;;;24.10;10.10;;;;;;;14.36;52.68;99959.78;5100295;28;20040;-81
2022/04/19 03:50:20;;;;;;;21.10;8.75;;;;;;;14.59;52.36;99964.06;5103213;28;20146;-86
2022/04/19 03:52:47;;;;;;;32.30;9.65;;;;;;;14.69;51.93;99948.81;5072405;28;20131;-84
2022/04/19 03:55:16;;;;;;;31.08;9.68;;;;;;;15.05;51.49;99965.41;5078553;28;20127;-87
2022/04/19 03:57:43;;;;;;;40.13;10.48;;;;;;;15.21;51.19;99960.34;5096136;28;20398;-80
2022/04/19 04:00:11;;;;;;;30.40;10.63;;;;;;;15.15;50.48;99938.50;5100357;28;20056;-87
2022/04/19 04:02:43;;;;;;;34.75;10.68;;;;;;;15.33;50.03;99955.72;5102186;28;20075;-86
2022/04/19 04:05:17;;;;;;;35.85;12.48;;;;;;;15.48;50.54;99956.16;5101210;28;20554;-86
2022/04/19 04:07:43;;;;;;;22.58;9.70;;;;;;;15.51;50.17;99961.28;5068652;28;20084;-87
2022/04/19 04:10:13;;;;;;;18.80;10.13;;;;;;;15.47;49.91;99970.63;5099167;28;20040;-90
2022/04/19 04:12:39;;;;;;;28.65;9.85;;;;;;;15.49;49.87;99968.63;5098267;28;20524;-83
2022/04/19 04:15:05;;;;;;;32.22;11.38;;;;;;;15.51;49.48;99958.59;5066589;28;20119;-84
2022/04/19 04:17:31;;;;;;;30.52;10.70;;;;;;;15.62;49.83;99958.47;5099335;28;20047;-92
2022/04/19 04:20:00;;;;;;;35.35;9.75;;;;;;;15.75;49.45;99956.38;5083028;28;20044;-90
2022/04/19 04:22:29;;;;;;;31.83;11.23;;;;;;;15.94;49.03;99973.53;5088588;28;20044;-83
2022/04/19 04:24:56;;;;;;;23.63;10.32;;;;;;;15.97;49.26;99967.88;5099387;28;20040;-85
2022/04/19 04:27:23;;;;;;;37.47;10.60;;;;;;;16.05;48.87;99972.56;5099558;28;20043;-80
2022/04/19 04:29:49;;;;;;;29.23;10.07;;;;;;;16.16;48.80;99980.50;5093281;28;20538;-79
2022/04/19 04:32:15;;;;;;;25.63;10.02;;;;;;;16.14;48.41;99963.63;5092858;28;20048;-82
2022/04/19 04:34:42;;;;;;;46.97;24.42;;;;;;;16.36;48.34;99984.00;5094535;28;20054;-84
2022/04/19 04:37:09;;;;;;;30.75;9.27;;;;;;;16.46;48.38;99988.41;5093906;28;20044;-82
2022/04/19 04:39:42;;;;;;;24.33;10.05;;;;;;;16.34;48.11;99994.97;5061838;28;20064;-82
2022/04/19 04:42:34;;;;;;;20.02;9.52;;;;;;;16.44;47.97;99992.25;5094362;28;20051;-81
2022/04/19 04:45:09;;;;;;;27.55;10.55;;;;;;;16.60;47.95;99994.38;5096202;28;20040;-81
2022/04/19 04:50:19;;;;;;;24.13;9.93;;;;;;;16.78;47.66;99998.03;5096411;28;20035;-83
2022/04/19 04:52:48;;;;;;;19.02;8.48;;;;;;;16.88;47.02;99995.28;5077166;28;20048;-84
2022/04/19 04:55:14;;;;;;;21.97;8.80;;;;;;;16.94;47.21;99989.31;5096108;28;20043;-82
2022/04/19 04:57:41;;;;;;;20.42;9.63;;;;;;;17.07;46.69;99999.78;5079273;28;20052;-83
2022/04/19 05:00:07;;;;;;;17.10;8.38;;;;;;;17.29;46.64;99990.44;5092131;28;20064;-82
2022/04/19 05:02:55;;;;;;;34.83;7.75;;;;;;;17.43;45.66;99998.03;5062032;28;20136;-82
2022/04/19 05:05:22;;;;;;;12.80;9.07;;;;;;;17.26;45.95;99990.72;5093208;28;20526;-80
2022/04/19 05:07:52;;;;;;;17.33;9.65;;;;;;;17.15;46.59;99989.94;5075399;28;20089;-79
2022/04/19 05:10:18;;;;;;;18.50;8.52;;;;;;;17.04;46.92;99992.84;5058302;28;20048;-83
2022/04/19 05:12:44;;;;;;;16.13;8.65;;;;;;;17.12;46.32;99981.28;5091945;28;20047;-80
2022/04/19 05:15:13;;;;;;;15.75;9.18;;;;;;;17.30;46.11;99997.53;5092718;28;20046;-83
2022/04/19 05:17:40;;;;;;;17.98;9.27;;;;;;;17.34;46.34;99990.81;5058859;28;20040;-82
2022/04/19 05:20:09;;;;;;;19.35;9.10;;;;;;;17.42;45.97;99996.34;5091681;28;20044;-82
2022/04/19 05:22:37;;;;;;;20.30;9.32;;;;;;;17.15;45.88;99992.66;5058481;28;20050;-82
2022/04/19 05:25:05;;;;;;;11.98;8.75;;;;;;;17.07;46.38;99989.81;5075557;28;20410;-80
2022/04/19 05:27:31;;;;;;;19.90;9.35;;;;;;;17.09;46.20;100009.44;5075439;28;20040;-80
2022/04/19 05:29:58;;;;;;;15.48;8.93;;;;;;;17.26;45.94;100004.25;5075732;28;20036;-81
2022/04/19 05:32:27;;;;;;;26.13;8.63;;;;;;;17.41;45.95;99994.63;5059099;28;20044;-80
2022/04/19 05:34:54;;;;;;;29.05;8.88;;;;;;;17.16;45.94;100004.31;5092758;28;20036;-80
2022/04/19 05:37:21;;;;;;;13.27;8.73;;;;;;;17.23;46.21;100000.84;5075559;28;20040;-81
2022/04/19 05:39:46;;;;;;;22.05;10.27;;;;;;;17.62;45.91;99999.78;5057772;28;20048;-80
2022/04/19 05:42:12;;;;;;;21.30;8.70;;;;;;;17.83;45.02;100004.97;5091873;28;20058;-81
2022/04/19 05:44:40;;;;;;;14.98;8.35;;;;;;;18.00;44.54;99998.69;5058040;28;20155;-80
2022/04/19 05:47:07;;;;;;;19.38;8.50;;;;;;;18.14;44.71;100006.25;5075236;28;20092;-81
2022/04/19 05:49:33;;;;;;;17.65;8.85;;;;;;;18.32;44.33;100008.97;5074681;28;20139;-80
2022/04/19 05:51:58;;;;;;;19.55;9.60;;;;;;;18.49;44.11;100004.53;5057752;28;20140;-81
2022/04/19 05:54:25;;;;;;;14.30;8.55;;;;;;;18.67;43.34;99990.94;5074259;28;20067;-81
2022/04/19 05:56:56;;;;;;;19.42;8.93;;;;;;;18.91;43.19;99987.56;5091076;28;20051;-82
2022/04/19 05:59:22;;;;;;;17.92;8.80;;;;;;;19.06;43.33;99985.09;5074541;28;20044;-81
2022/04/19 06:07:17;;;;;;;15.90;10.73;;;;;;;19.58;42.27;99984.97;5098185;28;20118;-81
2022/04/19 06:09:43;;;;;;;26.15;9.32;;;;;;;19.76;41.92;99984.88;5098748;28;20043;-81
2022/04/19 06:12:09;;;;;;;43.25;9.88;;;;;;;19.86;41.70;99985.59;5098468;28;20062;-80
2022/04/19 06:14:42;;;;;;;48.80;10.15;;;;;;;20.06;41.74;99984.25;5083389;28;20035;-79
2022/04/19 06:17:13;;;;;;;21.60;8.20;;;;;;;20.26;40.94;99970.34;5064663;28;20035;-85
2022/04/19 06:19:39;;;;;;;38.00;8.82;;;;;;;20.53;40.54;99980.88;5098416;28;20503;-84
2022/04/19 06:22:05;;;;;;;46.75;10.70;;;;;;;20.57;40.48;99974.09;5064899;28;20039;-85
2022/04/19 06:24:32;;;;;;;52.45;9.60;;;;;;;20.67;40.01;99973.06;5098412;28;20134;-84
2022/04/19 06:26:58;;;;;;;15.50;7.32;;;;;;;20.34;39.83;99975.78;5097852;28;20054;-82
2022/04/19 06:29:26;;;;;;;16.30;7.93;;;;;;;20.10;40.05;99972.03;5064660;28;20039;-84
2022/04/19 06:31:55;;;;;;;14.32;7.47;;;;;;;20.05;40.38;99973.59;5097662;28;20039;-82
2022/04/19 06:34:32;;;;;;;16.20;6.88;;;;;;;20.25;40.11;99974.09;5099871;28;20398;-80
2022/04/19 06:37:06;;;;;;;59.67;9.27;;;;;;;20.60;39.57;99970.19;5097544;28;20615;-79
2022/04/19 06:39:33;;;;;;;34.22;7.80;;;;;;;20.94;39.14;99977.25;5080892;28;20035;-84
2022/04/19 06:41:59;;;;;;;16.73;7.82;;;;;;;21.11;39.40;99968.03;5063811;28;20092;-81
2022/04/19 06:44:29;;;;;;;24.42;7.97;;;;;;;21.29;38.39;99967.78;5097693;28;20043;-81
2022/04/19 06:47:10;;;;;;;31.10;7.45;;;;;;;21.43;38.77;99967.03;5097760;28;20040;-82
2022/04/19 06:49:38;;;;;;;9.65;7.65;;;;;;;21.49;38.35;99966.34;5080987;28;20043;-82
2022/04/19 06:52:06;;;;;;;15.85;7.28;;;;;;;21.63;38.19;99969.34;5097490;28;20051;-81
2022/04/19 06:54:34;;;;;;;13.48;7.05;;;;;;;21.71;37.90;99953.81;5080588;28;20047;-81
2022/04/19 06:57:01;;;;;;;14.80;7.00;;;;;;;21.94;37.62;99964.72;5097259;28;20044;-82
2022/04/19 06:59:28;;;;;;;16.00;7.53;;;;;;;22.07;37.43;99964.94;5096840;28;20104;-84
2022/04/19 07:01:54;;;;;;;19.58;7.30;;;;;;;22.23;37.41;99950.41;5080211;28;20493;-80
2022/04/19 07:04:35;;;;;;;17.00;5.20;;;;;;;22.32;36.45;99953.88;5096586;28;20039;-80
2022/04/19 07:07:09;;;;;;;7.88;5.05;;;;;;;22.09;36.05;99947.59;5064131;28;20096;-81
2022/04/19 07:09:38;;;;;;;11.52;5.07;;;;;;;21.78;36.42;99953.94;5097160;28;20061;-80
2022/04/19 07:12:06;;;;;;;11.25;5.18;;;;;;;21.71;36.70;99952.97;5097252;28;20096;-80
2022/04/19 07:14:37;;;;;;;12.80;5.43;;;;;;;21.72;36.94;99949.22;5097362;28;20051;-80
2022/04/19 07:17:12;;;;;;;17.65;4.68;;;;;;;21.89;36.43;99942.63;5097195;28;20092;-80
2022/04/19 07:28:03;;;;;;;12.68;5.03;;;;;;;22.18;35.85;99947.34;5096793;28;20035;-80
2022/04/19 07:30:37;;;;;;;21.35;5.00;;;;;;;22.21;36.22;99948.88;5064114;28;20107;-81
2022/04/19 07:33:05;;;;;;;10.85;4.60;;;;;;;22.13;36.26;99948.91;5080107;28;20079;-80
2022/04/19 07:35:33;;;;;;;10.15;4.35;;;;;;;22.05;36.14;99955.28;5080337;28;20138;-79
2022/04/19 07:38:00;;;;;;;9.05;4.00;;;;;;;22.15;35.94;99955.03;5063067;28;20046;-79
2022/04/19 07:40:36;;;;;;;5.72;4.50;;;;;;;22.00;36.37;99947.66;5081191;28;20062;-78
2022/04/19 07:43:02;;;;;;;7.15;3.92;;;;;;;21.73;36.60;99950.91;5096395;28;20119;-79
2022/04/19 07:45:29;;;;;;;14.20;4.97;;;;;;;21.62;36.88;99945.88;5063430;28;20039;-81
2022/04/19 07:47:55;;;;;;;4.32;3.58;;;;;;;21.82;36.60;99934.34;5096193;28;20454;-80
2022/04/19 07:50:21;;;;;;;15.43;4.20;;;;;;;21.96;36.27;99929.97;5079569;28;20051;-80
2022/04/19 07:52:47;;;;;;;13.05;4.13;;;;;;;21.87;36.23;99935.69;5096271;28;20075;-80
2022/04/19 07:55:13;;;;;;;11.60;4.05;;;;;;;21.85;36.34;99943.16;5096291;28;20075;-79
2022/04/19 07:57:39;;;;;;;5.25;3.88;;;;;;;21.71;36.09;99933.91;5095645;28;20137;-80
2022/04/19 08:00:06;;;;;;;10.35;4.10;;;;;;;21.88;36.21;99940.94;5078659;28;20047;-79
2022/04/19 08:02:41;;;;;;;19.10;4.75;;;;;;;22.19;35.85;99937.31;5080691;28;20565;-81
2022/04/19 08:05:11;;;;;;;6.28;3.85;;;;;;;22.18;35.63;99944.63;5096172;28;20323;-78
2022/04/19 08:07:37;;;;;;;8.73;4.20;;;;;;;21.79;36.13;99944.75;5095980;28;20477;-80
2022/04/19 08:10:04;;;;;;;7.63;4.10;;;;;;;21.78;36.12;99932.19;5095634;28;20044;-82
2022/04/19 08:12:31;;;;;;;9.15;4.10;;;;;;;21.63;36.12;99925.81;5095816;28;20143;-81
2022/04/19 08:14:58;;;;;;;5.07;3.40;;;;;;;21.63;36.08;99933.97;5114277;28;20032;-80
2022/04/19 08:17:25;;;;;;;6.93;4.10;;;;;;;21.58;36.40;99932.63;5079245;28;20074;-81
2022/04/19 08:19:51;;;;;;;13.07;3.95;;;;;;;21.56;36.50;99934.69;5095881;28;20071;-80
2022/04/19 08:22:17;;;;;;;7.80;3.78;;;;;;;21.33;37.01;99931.09;5061989;28;20039;-82
2022/04/19 08:24:54;;;;;;;7.63;3.95;;;;;;;21.00;37.33;99927.63;5063595;28;20036;-80
2022/04/19 08:27:20;;;;;;;9.93;3.60;;;;;;;21.07;37.27;99929.47;5061317;28;20039;-81
2022/04/19 08:29:48;;;;;;;17.48;3.97;;;;;;;21.26;36.90;99932.78;5096117;28;20094;-80
2022/04/19 08:32:14;;;;;;;6.75;3.92;;;;;;;21.37;37.09;99926.97;5062365;28;20081;-80
2022/04/19 08:34:40;;;;;;;16.83;3.92;;;;;;;21.65;36.50;99921.03;5061835;28;20476;-80
2022/04/19 08:37:07;;;;;;;9.20;3.92;;;;;;;21.78;36.74;99933.00;5113318;28;20083;-80
2022/04/19 08:39:33;;;;;;;9.70;3.65;;;;;;;22.02;35.98;99929.25;5062021;28;20071;-80
2022/04/19 08:41:59;;;;;;;9.43;4.78;;;;;;;22.23;35.67;99934.06;5094943;28;20447;-79
2022/04/19 08:44:25;;;;;;;21.75;4.43;;;;;;;22.42;35.83;99927.25;5061443;28;20143;-80
2022/04/19 08:46:55;;;;;;;10.60;4.20;;;;;;;22.57;35.64;99942.75;5095302;28;20051;-81
2022/04/19 08:49:22;;;;;;;9.05;4.28;;;;;;;22.53;35.05;99929.50;5113845;28;20047;-81
2022/04/19 08:51:48;;;;;;;8.57;4.05;;;;;;;22.60;34.98;99917.84;5113366;28;20036;-81
2022/04/19 08:59:43;;;;;;;9.32;3.60;;;;;;;22.29;35.21;99929.72;5094931;28;20392;-80
2022/04/19 09:02:20;;;;;;;11.88;3.72;;;;;;;22.37;35.36;99905.13;5113233;28;20101;-81
2022/04/19 09:04:46;;;;;;;8.35;3.85;;;;;;;23.07;34.71;99917.53;5113809;28;20051;-84
2022/04/19 09:07:12;;;;;;;7.32;3.45;;;;;;;23.29;33.40;99910.25;5061347;28;20039;-81
2022/04/19 09:09:38;;;;;;;7.57;3.63;;;;;;;23.39;33.60;99916.22;5094813;28;20368;-80
2022/04/19 09:12:08;;;;;;;8.57;3.80;;;;;;;23.47;33.28;99929.78;5078162;28;20396;-80
2022/04/19 09:14:35;;;;;;;12.57;3.70;;;;;;;23.86;32.75;99912.16;5095145;28;20100;-81
2022/04/19 09:17:06;;;;;;;5.60;3.60;;;;;;;24.03;31.95;99910.00;5112876;28;20078;-81
2022/04/19 09:19:32;;;;;;;6.15;3.50;;;;;;;23.86;32.24;99897.66;5094967;28;20047;-79
2022/04/19 09:21:58;;;;;;;9.05;3.90;;;;;;;23.75;32.49;99913.50;5112491;28;20047;-83
2022/04/19 09:24:28;;;;;;;6.30;3.60;;;;;;;23.43;32.90;99906.66;5094748;28;20078;-81
2022/04/19 09:26:54;;;;;;;9.15;3.90;;;;;;;23.70;32.67;99907.81;5094318;28;20493;-81
2022/04/19 09:29:27;;;;;;;11.65;3.55;;;;;;;23.97;32.55;99914.38;5061044;28;20039;-80
2022/04/19 09:32:01;;;;;;;9.65;3.70;;;;;;;24.21;32.16;99915.81;5094984;28;20052;-80
2022/04/19 09:34:29;;;;;;;11.23;3.75;;;;;;;24.08;32.19;99909.44;5094816;28;20047;-81
2022/04/19 09:37:07;;;;;;;;;;;;;;;24.13;32.35;99909.66;5113063;28;20050;-80
2022/04/19 09:39:34;;;;;;;9.65;3.65;;;;;;;24.51;32.15;99899.28;5095352;28;19958;-81
2022/04/19 09:42:08;;;;;;;6.97;3.47;;;;;;;24.63;31.35;99905.88;5098545;28;20047;-81
2022/04/19 09:44:49;;;;;;;6.00;3.95;;;;;;;24.35;31.60;99897.66;5081825;28;20504;-81
2022/04/19 09:47:15;;;;;;;11.32;3.90;;;;;;;24.04;31.96;99897.22;5065135;28;20036;-81
2022/04/19 09:49:44;;;;;;;5.60;3.67;;;;;;;24.51;31.59;99895.69;5098403;28;20083;-81
2022/04/19 09:52:33;;;;;;;8.48;3.75;;;;;;;24.30;31.56;99891.97;5064719;28;20043;-81
2022/04/19 09:55:06;;;;;;;10.80;3.67;;;;;;;24.32;31.83;99886.28;5052847;28;20044;-80
2022/04/19 09:57:34;;;;;;;4.97;3.72;;;;;;;24.08;31.79;99882.13;5098338;28;20047;-80
2022/04/19 10:00:00;;;;;;;18.52;3.40;;;;;;;24.62;31.62;99885.06;5116559;28;20120;-80
2022/04/19 10:08:11;;;;;;;9.07;3.40;;;;;;;26.70;28.59;99872.47;5098523;28;20039;-80
2022/04/19 10:10:42;;;;;;;12.10;3.33;;;;;;;27.28;27.79;99871.66;5098246;28;20478;-81
2022/04/19 10:13:08;;;;;;;10.95;3.85;;;;;;;27.80;27.54;99865.03;5081255;28;20417;-81
2022/04/19 10:15:35;;;;;;;13.68;3.63;;;;;;;27.96;26.85;99860.06;5098176;28;20039;-84
2022/04/19 10:18:04;;;;;;;8.37;4.03;;;;;;;28.12;26.81;99855.91;5081508;28;20412;-79
2022/04/19 10:20:32;;;;;;;9.30;3.30;;;;;;;28.30;26.06;99856.78;5064511;28;20051;-80
2022/04/19 10:23:04;;;;;;;9.02;3.50;;;;;;;28.44;26.08;99856.72;5097701;28;20046;-81
2022/04/19 10:25:40;;;;;;;6.38;3.70;;;;;;;28.09;27.06;99860.78;5097679;28;20044;-80
2022/04/19 10:28:25;;;;;;;7.60;3.40;;;;;;;26.59;27.45;99867.66;5064133;28;20039;-79
2022/04/19 10:30:53;;;;;;;10.43;3.63;;;;;;;26.07;28.31;99866.63;5097917;28;20046;-82
2022/04/19 10:33:39;;;;;;;6.20;3.42;;;;;;;26.34;27.92;99857.34;5097630;28;20047;-81
2022/04/19 10:36:14;;;;;;;4.63;3.38;;;;;;;26.75;27.50;99858.97;5080875;28;20039;-82
2022/04/19 10:38:41;;;;;;;4.97;3.17;;;;;;;26.75;27.65;99856.22;5064205;28;20059;-82
2022/04/19 10:41:07;;;;;;;8.50;3.35;;;;;;;26.99;27.88;99851.06;5115600;28;20051;-83
2022/04/19 10:43:34;;;;;;;6.72;3.88;;;;;;;27.75;26.74;99847.53;5097410;28;20067;-83
2022/04/19 10:46:19;;;;;;;8.57;3.40;;;;;;;27.95;26.17;99855.66;5063692;28;20509;-83
2022/04/19 10:49:22;;;;;;;5.53;3.30;;;;;;;27.78;26.47;99845.19;5097146;28;20043;-81
2022/04/19 10:51:50;;;;;;;11.52;3.65;;;;;;;27.65;26.19;99844.44;5063443;28;20040;-81
2022/04/19 10:54:16;;;;;;;6.77;3.90;;;;;;;27.06;26.69;99849.16;5080378;28;20506;-82
2022/04/19 11:00:27;;;;;;;8.10;3.47;;;;;;;26.59;27.61;99829.25;5089803;28;20047;-80
2022/04/19 11:03:20;;;;;;;7.70;3.50;;;;;;;26.74;27.39;99827.13;5080330;28;20047;-80
2022/04/19 11:05:54;;;;;;;7.97;3.60;;;;;;;26.53;27.24;99828.22;5071671;28;20532;-79
2022/04/19 11:08:26;;;;;;;9.05;3.50;;;;;;;25.53;28.58;99804.63;5080093;28;20402;-79
2022/04/19 11:10:55;;;;;;;9.05;3.40;;;;;;;24.94;29.38;99833.50;5097084;28;20421;-79
2022/04/19 11:13:27;;;;;;;9.90;3.80;;;;;;;24.47;30.24;99826.94;5079795;28;20490;-80
2022/04/19 11:15:57;;;;;;;10.38;3.70;;;;;;;24.35;30.38;99818.44;5097096;28;20054;-80
2022/04/19 11:18:26;;;;;;;5.80;3.20;;;;;;;24.29;30.42;99816.47;5063106;28;20048;-80
2022/04/19 11:20:53;;;;;;;;;;;;;;;24.06;30.92;99824.09;5063505;28;20051;-79
2022/04/19 11:23:20;;;;;;;6.18;3.20;;;;;;;23.81;31.02;99805.44;5079881;28;19938;-79
2022/04/19 11:25:47;;;;;;;7.55;3.42;;;;;;;24.11;30.83;99821.59;5114843;28;20047;-80
2022/04/19 11:28:19;;;;;;;9.25;3.53;;;;;;;24.10;30.76;99820.78;5096861;28;20430;-80
2022/04/19 11:31:07;;;;;;;7.00;3.22;;;;;;;23.78;31.28;99822.22;5096493;28;20088;-81
2022/04/19 11:33:38;;;;;;;8.68;3.55;;;;;;;23.95;31.23;99812.66;5114551;28;20521;-81
2022/04/19 11:36:06;;;;;;;5.53;3.13;;;;;;;23.79;31.02;99807.50;5096471;28;20465;-80
2022/04/19 11:38:49;;;;;;;8.02;3.55;;;;;;;23.55;31.73;99807.91;5062734;28;20036;-80
2022/04/19 11:47:00;;;;;;;6.97;3.63;;;;;;;23.44;31.50;99803.81;5048365;28;20051;-80
2022/04/19 11:49:27;;;;;;;6.38;3.67;;;;;;;23.15;32.23;99793.84;5096699;28;20046;-81
2022/04/19 11:51:55;;;;;;;5.60;3.50;;;;;;;23.27;32.17;99803.19;5096139;28;20043;-80
2022/04/19 11:54:26;;;;;;;8.13;3.63;;;;;;;23.45;31.99;99789.13;5079008;28;20042;-82
2022/04/19 11:56:53;;;;;;;7.28;3.83;;;;;;;23.43;32.00;99797.50;5095956;28;20320;-79
2022/04/19 11:59:27;;;;;;;7.15;4.45;;;;;;;25.07;30.79;99794.41;5114322;28;20058;-80
2022/04/19 12:01:54;;;;;;;13.43;4.75;;;;;;;25.94;28.90;99790.75;5061549;28;20047;-81
2022/04/19 12:04:20;;;;;;;11.43;4.45;;;;;;;25.89;28.81;99772.25;5095779;28;20047;-81
2022/04/19 12:06:57;;;;;;;9.32;4.25;;;;;;;26.03;28.58;99780.47;5113840;28;20086;-80
2022/04/19 12:09:23;;;;;;;7.35;3.72;;;;;;;26.65;28.36;99781.78;5095459;28;20155;-80
2022/04/19 12:11:49;;;;;;;8.57;3.50;;;;;;;26.96;27.40;99771.94;5095507;28;20078;-81
2022/04/19 12:14:29;;;;;;;75.75;6.20;;;;;;;26.61;27.56;99784.13;5114277;28;20439;-81
2022/04/19 12:17:01;;;;;;;12.88;3.80;;;;;;;25.90;28.09;99773.91;5061831;28;20039;-80
2022/04/19 12:19:35;;;;;;;14.68;4.30;;;;;;;25.47;28.79;99778.09;5113483;28;20040;-79
2022/04/19 12:22:13;;;;;;;9.32;3.92;;;;;;;25.02;29.09;99780.50;5061722;28;20031;-79